createdAt,value
2019-03-27T00:02:24.291Z,31.15
2019-03-27T00:04:52.815Z,27.90
2019-03-27T00:07:21.282Z,27.45
2019-03-27T00:09:49.795Z,25.88
2019-03-27T00:12:18.647Z,22.62
2019-03-27T00:14:47.291Z,26.10
2019-03-27T00:17:15.762Z,23.22
2019-03-27T00:19:44.080Z,28.75
2019-03-27T00:22:12.647Z,28.02
2019-03-27T00:24:41.805Z,21.23
2019-03-27T00:27:10.318Z,29.30
2019-03-27T00:29:38.983Z,23.30
2019-03-27T00:32:07.348Z,30.72
2019-03-27T00:34:35.997Z,25.40
2019-03-27T00:37:04.516Z,23.57
2019-03-27T00:39:33.006Z,27.17
2019-03-27T00:42:01.318Z,27.85
2019-03-27T00:44:29.596Z,30.17
2019-03-27T00:46:58.322Z,34.95
2019-03-27T00:49:27.068Z,45.03
2019-03-27T00:51:55.661Z,36.85
2019-03-27T00:54:24.227Z,38.92
2019-03-27T00:56:52.515Z,35.52
2019-03-27T00:59:20.814Z,36.25
2019-03-27T01:01:49.464Z,40.58
2019-03-27T01:04:17.923Z,40.00
2019-03-27T01:06:46.230Z,41.95
2019-03-27T01:09:14.723Z,40.90
2019-03-27T01:11:43.244Z,40.58
2019-03-27T01:14:11.637Z,44.48
2019-03-27T01:16:40.252Z,37.63
2019-03-27T01:19:08.934Z,41.88
2019-03-27T01:21:37.417Z,39.70
2019-03-27T01:24:06.021Z,40.33
2019-03-27T01:26:34.607Z,37.38
2019-03-27T01:29:03.065Z,41.63
2019-03-27T01:31:31.700Z,41.02
2019-03-27T01:34:00.103Z,40.90
2019-03-27T01:36:28.523Z,37.48
2019-03-27T01:38:57.066Z,42.95
2019-03-27T01:41:28.403Z,36.93
2019-03-27T01:43:56.720Z,38.08
2019-03-27T01:46:25.503Z,37.08
2019-03-27T01:48:54.080Z,36.17
2019-03-27T01:51:22.376Z,41.30
2019-03-27T01:53:50.670Z,42.95
2019-03-27T01:56:19.268Z,39.33
2019-03-27T01:58:47.685Z,37.85
2019-03-27T02:01:16.033Z,42.78
2019-03-27T02:03:44.374Z,36.38
2019-03-27T02:06:12.848Z,35.17
2019-03-27T02:08:41.420Z,39.23
2019-03-27T02:11:09.935Z,36.35
2019-03-27T02:13:38.396Z,36.75
2019-03-27T02:16:07.523Z,41.53
2019-03-27T02:18:38.496Z,36.93
2019-03-27T02:21:07.154Z,44.35
2019-03-27T02:23:35.548Z,40.65
2019-03-27T02:26:04.180Z,41.13
2019-03-27T02:28:32.817Z,45.88
2019-03-27T02:31:01.760Z,36.42
2019-03-27T02:33:30.475Z,37.50
2019-03-27T02:35:59.747Z,38.55
2019-03-27T02:38:28.194Z,40.15
2019-03-27T02:40:56.539Z,43.70
2019-03-27T02:43:24.917Z,43.05
2019-03-27T02:45:53.701Z,38.65
2019-03-27T02:48:22.577Z,44.10
2019-03-27T02:50:51.389Z,31.70
2019-03-27T02:53:19.817Z,41.48
2019-03-27T02:55:48.207Z,46.30
2019-03-27T02:58:18.537Z,42.17
2019-03-27T03:00:47.561Z,37.50
2019-03-27T03:03:16.143Z,41.10
2019-03-27T03:05:44.760Z,34.53
2019-03-27T03:08:13.456Z,39.27
2019-03-27T03:10:45.688Z,27.67
2019-03-27T03:13:12.102Z,32.40
2019-03-27T03:15:40.750Z,39.15
2019-03-27T03:18:09.519Z,31.85
2019-03-27T03:20:38.415Z,30.45
2019-03-27T03:23:06.908Z,28.87
2019-03-27T03:25:35.719Z,28.95
2019-03-27T03:28:04.197Z,37.73
2019-03-27T03:30:32.799Z,30.40
2019-03-27T03:33:01.321Z,37.60
2019-03-27T03:35:29.801Z,30.68
2019-03-27T03:37:58.526Z,29.87
2019-03-27T03:40:27.082Z,33.95
2019-03-27T03:42:55.647Z,38.23
2019-03-27T03:45:24.426Z,28.77
2019-03-27T03:47:52.851Z,31.62
2019-03-27T03:50:33.642Z,50.65
2019-03-27T03:53:02.149Z,46.68
2019-03-27T03:55:30.924Z,42.40
2019-03-27T03:57:59.437Z,33.75
2019-03-27T04:00:27.826Z,38.80
2019-03-27T04:02:56.424Z,45.78
2019-03-27T04:05:25.051Z,68.95
2019-03-27T04:07:53.699Z,90.77
2019-03-27T04:10:22.519Z,86.72
2019-03-27T04:12:51.213Z,59.33
2019-03-27T04:15:19.655Z,34.50
2019-03-27T04:17:48.059Z,54.95
2019-03-27T04:20:16.681Z,52.38
2019-03-27T04:22:45.616Z,57.27
2019-03-27T04:25:14.667Z,57.63
2019-03-27T04:27:43.140Z,60.17
2019-03-27T04:30:11.707Z,50.17
2019-03-27T04:32:40.757Z,51.35
2019-03-27T04:35:09.287Z,43.90
2019-03-27T04:37:37.861Z,48.83
2019-03-27T04:40:06.365Z,49.83
2019-03-27T04:42:34.764Z,48.33
2019-03-27T04:45:03.360Z,53.40
2019-03-27T04:47:32.746Z,49.38
2019-03-27T04:50:01.325Z,46.73
2019-03-27T04:52:29.656Z,43.63
2019-03-27T04:54:57.985Z,41.50
2019-03-27T04:57:29.879Z,39.13
2019-03-27T04:59:58.589Z,43.02
2019-03-27T05:02:26.934Z,38.25
2019-03-27T05:04:55.972Z,33.10
2019-03-27T05:07:25.519Z,33.35
2019-03-27T05:09:53.931Z,34.65
2019-03-27T05:12:22.404Z,26.68
2019-03-27T05:14:50.866Z,33.78
2019-03-27T05:17:19.365Z,28.67
2019-03-27T05:19:48.231Z,33.20
2019-03-27T05:22:25.956Z,32.13
2019-03-27T05:24:54.558Z,38.10
2019-03-27T05:27:22.907Z,34.08
2019-03-27T05:29:51.346Z,27.13
2019-03-27T05:32:19.881Z,34.08
2019-03-27T05:34:50.619Z,37.38
2019-03-27T05:37:18.914Z,47.13
2019-03-27T05:39:47.450Z,70.40
2019-03-27T05:42:15.809Z,242.57
2019-03-27T05:44:44.967Z,279.38
2019-03-27T05:47:14.509Z,213.50
2019-03-27T05:49:43.679Z,164.35
2019-03-27T05:52:24.999Z,81.80
2019-03-27T05:54:53.280Z,36.10
2019-03-27T05:57:21.522Z,194.45
2019-03-27T05:59:49.882Z,79.22
2019-03-27T06:02:18.236Z,48.63
2019-03-27T06:04:46.597Z,86.85
2019-03-27T06:07:14.944Z,230.60
2019-03-27T06:09:43.306Z,158.80
2019-03-27T06:12:11.635Z,136.28
2019-03-27T06:14:40.038Z,66.85
2019-03-27T06:17:08.344Z,22.82
2019-03-27T06:19:36.711Z,18.55
2019-03-27T06:22:05.132Z,16.85
2019-03-27T06:24:33.558Z,16.82
2019-03-27T06:27:01.930Z,15.72
2019-03-27T06:29:30.241Z,17.60
2019-03-27T06:32:00.244Z,13.65
2019-03-27T06:36:57.096Z,14.00
2019-03-27T06:39:25.438Z,15.35
2019-03-27T06:41:53.709Z,14.75
2019-03-27T06:44:22.053Z,13.48
2019-03-27T06:46:50.341Z,16.85
2019-03-27T06:49:18.761Z,12.53
2019-03-27T06:51:52.084Z,17.85
2019-03-27T06:54:20.471Z,13.32
2019-03-27T06:56:49.974Z,15.90
2019-03-27T06:59:19.836Z,21.33
2019-03-27T07:01:48.214Z,20.02
2019-03-27T07:04:17.419Z,18.77
2019-03-27T07:06:48.031Z,14.70
2019-03-27T07:09:16.561Z,16.52
2019-03-27T07:11:45.075Z,15.10
2019-03-27T07:14:13.552Z,12.25
2019-03-27T07:16:41.844Z,22.65
2019-03-27T07:19:12.608Z,13.95
2019-03-27T07:21:40.994Z,13.40
2019-03-27T07:24:09.541Z,16.00
2019-03-27T07:26:38.661Z,18.62
2019-03-27T07:29:07.125Z,13.70
2019-03-27T07:31:35.503Z,14.78
2019-03-27T07:34:03.945Z,15.08
2019-03-27T07:36:32.377Z,16.35
2019-03-27T07:39:10.445Z,15.65
2019-03-27T07:43:59.105Z,16.82
2019-03-27T07:46:29.155Z,17.45
2019-03-27T07:51:25.482Z,11.95
2019-03-27T07:53:54.266Z,10.85
2019-03-27T07:56:22.797Z,18.62
2019-03-27T07:58:51.247Z,13.85
2019-03-27T08:01:20.041Z,12.40
2019-03-27T08:03:48.690Z,15.93
2019-03-27T08:06:17.204Z,14.33
2019-03-27T08:08:47.300Z,15.40
2019-03-27T08:13:45.601Z,16.02
2019-03-27T08:18:41.553Z,18.02
2019-03-27T08:21:11.653Z,16.40
2019-03-27T08:26:07.711Z,16.12
2019-03-27T08:28:36.102Z,16.93
2019-03-27T08:31:04.505Z,17.42
2019-03-27T08:33:32.867Z,15.58
2019-03-27T08:36:01.425Z,19.20
2019-03-27T08:38:29.895Z,17.92
2019-03-27T08:40:58.185Z,16.07
2019-03-27T08:43:26.582Z,14.38
2019-03-27T08:45:55.038Z,13.28
2019-03-27T08:48:23.528Z,15.68
2019-03-27T08:50:52.193Z,15.30
2019-03-27T08:53:20.494Z,13.98
2019-03-27T08:55:50.561Z,15.25
2019-03-27T09:00:49.808Z,15.43
2019-03-27T09:03:18.310Z,16.75
2019-03-27T09:05:46.806Z,23.07
2019-03-27T09:08:15.262Z,18.17
2019-03-27T09:10:43.618Z,18.20
2019-03-27T09:13:12.055Z,20.45
2019-03-27T09:15:40.415Z,14.85
2019-03-27T09:18:08.856Z,11.43
2019-03-27T09:20:37.260Z,13.40
2019-03-27T09:23:07.794Z,11.97
2019-03-27T09:25:36.271Z,13.43
2019-03-27T09:28:04.910Z,15.65
2019-03-27T09:30:33.213Z,14.58
2019-03-27T09:33:01.625Z,8.85
2019-03-27T09:35:31.734Z,7.12
2019-03-27T09:40:31.515Z,8.70
2019-03-27T09:43:00.799Z,7.15
2019-03-27T09:45:31.157Z,6.15
2019-03-27T09:47:59.628Z,6.17
2019-03-27T09:50:27.988Z,7.17
2019-03-27T09:52:56.880Z,7.70
2019-03-27T09:55:25.212Z,17.50
2019-03-27T09:57:53.589Z,7.58
2019-03-27T10:00:47.905Z,6.40
2019-03-27T10:03:16.894Z,5.47
2019-03-27T10:05:45.492Z,5.65
2019-03-27T10:08:14.009Z,7.50
2019-03-27T10:10:42.424Z,8.35
2019-03-27T10:13:10.804Z,7.47
2019-03-27T10:15:39.153Z,12.37
2019-03-27T10:18:07.477Z,9.10
2019-03-27T10:20:35.919Z,5.58
2019-03-27T10:23:04.469Z,11.22
2019-03-27T10:25:33.067Z,8.08
2019-03-27T10:28:01.404Z,7.90
2019-03-27T10:30:30.005Z,6.83
2019-03-27T10:32:58.623Z,5.35
2019-03-27T10:35:26.992Z,8.38
2019-03-27T10:37:55.644Z,6.80
2019-03-27T10:40:24.112Z,7.90
2019-03-27T10:42:52.573Z,9.03
2019-03-27T10:45:21.020Z,5.72
2019-03-27T10:47:49.626Z,6.78
2019-03-27T10:50:18.316Z,7.90
2019-03-27T10:52:46.622Z,5.55
2019-03-27T10:55:14.956Z,7.00
2019-03-27T10:57:43.240Z,10.13
2019-03-27T11:00:12.581Z,4.35
2019-03-27T11:02:41.035Z,6.35
2019-03-27T11:05:09.421Z,7.92
2019-03-27T11:07:37.772Z,7.15
2019-03-27T11:10:07.866Z,9.88
2019-03-27T11:12:36.183Z,5.37
2019-03-27T11:15:06.587Z,10.50
2019-03-27T11:17:35.131Z,7.03
2019-03-27T11:20:04.036Z,8.73
2019-03-27T11:22:35.406Z,5.70
2019-03-27T11:25:04.975Z,7.90
2019-03-27T11:27:33.428Z,9.00
2019-03-27T11:30:02.767Z,7.40
2019-03-27T11:32:31.284Z,7.00
2019-03-27T11:34:59.607Z,8.30
2019-03-27T11:37:28.074Z,9.30
2019-03-27T11:39:56.534Z,5.78
2019-03-27T11:42:27.998Z,9.75
2019-03-27T11:44:56.764Z,8.35
2019-03-27T11:47:25.112Z,11.00
2019-03-27T11:49:53.452Z,10.60
2019-03-27T11:52:21.867Z,8.43
2019-03-27T11:54:50.258Z,10.23
2019-03-27T11:57:18.693Z,13.18
2019-03-27T11:59:53.716Z,12.33
2019-03-27T12:02:17.684Z,15.75
2019-03-27T12:04:46.189Z,8.45
2019-03-27T12:07:14.504Z,8.80
2019-03-27T12:09:43.029Z,9.05
2019-03-27T12:12:11.465Z,11.50
2019-03-27T12:14:39.761Z,9.98
2019-03-27T12:17:08.387Z,7.70
2019-03-27T12:19:38.041Z,12.95
2019-03-27T12:22:06.611Z,10.00
2019-03-27T12:24:34.883Z,10.23
2019-03-27T12:27:03.269Z,8.48
2019-03-27T12:29:31.594Z,8.70
2019-03-27T12:31:59.938Z,11.12
2019-03-27T12:34:29.995Z,10.18
2019-03-27T12:39:26.226Z,13.88
2019-03-27T12:41:54.993Z,10.75
2019-03-27T12:44:23.426Z,11.73
2019-03-27T12:46:52.151Z,10.50
2019-03-27T12:49:22.249Z,10.45
2019-03-27T12:54:18.248Z,9.85
2019-03-27T12:56:46.516Z,12.80
2019-03-27T12:59:14.927Z,11.50
2019-03-27T13:01:43.219Z,11.53
2019-03-27T13:04:11.507Z,9.80
2019-03-27T13:06:39.901Z,13.38
2019-03-27T13:09:08.322Z,10.05
2019-03-27T13:11:36.990Z,10.45
2019-03-27T13:14:05.409Z,8.78
2019-03-27T13:16:33.872Z,12.25
2019-03-27T13:19:02.630Z,8.43
2019-03-27T13:21:31.145Z,8.43
2019-03-27T13:23:59.461Z,9.75
2019-03-27T13:26:27.798Z,11.68
2019-03-27T13:28:56.109Z,11.05
2019-03-27T13:31:24.414Z,12.45
2019-03-27T13:33:52.758Z,11.20
2019-03-27T13:36:21.100Z,10.78
2019-03-27T13:38:49.395Z,13.72
2019-03-27T13:41:17.700Z,13.28
2019-03-27T13:43:45.973Z,12.60
2019-03-27T13:46:14.289Z,14.28
2019-03-27T13:48:42.654Z,14.45
2019-03-27T13:51:11.021Z,11.43
2019-03-27T13:53:39.387Z,10.53
2019-03-27T13:56:08.067Z,14.98
2019-03-27T13:58:36.536Z,14.25
2019-03-27T14:01:04.939Z,9.33
2019-03-27T14:03:33.494Z,10.53
2019-03-27T14:06:01.835Z,10.68
2019-03-27T14:08:30.499Z,12.88
2019-03-27T14:10:59.113Z,8.55
2019-03-27T14:13:27.529Z,10.28
2019-03-27T14:15:56.352Z,11.03
2019-03-27T14:18:24.802Z,9.43
2019-03-27T14:20:53.245Z,12.47
2019-03-27T14:23:21.579Z,9.18
2019-03-27T14:25:49.975Z,9.58
2019-03-27T14:28:18.576Z,9.53
2019-03-27T14:30:49.757Z,10.38
2019-03-27T14:33:18.378Z,8.30
2019-03-27T14:35:46.829Z,9.43
2019-03-27T14:38:15.203Z,7.80
2019-03-27T14:40:43.544Z,7.03
2019-03-27T14:43:11.941Z,6.72
2019-03-27T14:45:40.390Z,9.53
2019-03-27T14:48:09.044Z,10.30
2019-03-27T14:50:37.347Z,6.75
2019-03-27T14:53:06.862Z,4.65
2019-03-27T14:55:35.126Z,5.22
2019-03-27T14:58:03.511Z,7.67
2019-03-27T15:00:31.852Z,7.87
2019-03-27T15:03:00.221Z,5.70
2019-03-27T15:05:28.998Z,8.63
2019-03-27T15:07:57.358Z,7.05
2019-03-27T15:10:25.853Z,7.42
2019-03-27T15:12:54.502Z,6.47
2019-03-27T15:15:23.280Z,8.23
2019-03-27T15:17:51.930Z,9.45
2019-03-27T15:20:20.629Z,6.47
2019-03-27T15:22:49.009Z,4.97
2019-03-27T15:25:17.363Z,7.85
2019-03-27T15:27:45.738Z,9.35
2019-03-27T15:30:14.135Z,5.87
2019-03-27T15:32:42.687Z,15.50
2019-03-27T15:35:11.385Z,6.30
2019-03-27T15:37:40.906Z,6.95
2019-03-27T15:40:09.197Z,6.85
2019-03-27T15:42:38.571Z,6.47
2019-03-27T15:45:07.429Z,6.45
2019-03-27T15:47:36.740Z,6.35
2019-03-27T15:50:07.977Z,10.23
2019-03-27T15:52:37.188Z,7.08
2019-03-27T15:55:06.880Z,6.78
2019-03-27T15:57:35.472Z,4.80
2019-03-27T16:00:05.090Z,5.25
2019-03-27T16:02:33.471Z,6.35
2019-03-27T16:05:01.833Z,10.50
2019-03-27T16:07:31.482Z,10.75
2019-03-27T16:10:00.443Z,9.85
2019-03-27T16:12:29.533Z,7.03
2019-03-27T16:14:57.882Z,21.15
2019-03-27T16:17:26.471Z,53.45
2019-03-27T16:19:54.796Z,231.50
2019-03-27T16:22:23.328Z,248.20
2019-03-27T16:24:51.718Z,68.57
2019-03-27T16:27:20.115Z,10.63
2019-03-27T16:29:48.688Z,8.73
2019-03-27T16:32:17.176Z,6.92
2019-03-27T16:34:45.593Z,12.20
2019-03-27T16:37:14.009Z,7.70
2019-03-27T16:39:42.379Z,10.80
2019-03-27T16:42:10.697Z,5.58
2019-03-27T16:44:38.983Z,11.05
2019-03-27T16:47:07.262Z,10.98
2019-03-27T16:49:35.834Z,12.85
2019-03-27T16:52:04.128Z,11.00
2019-03-27T16:54:32.461Z,11.30
2019-03-27T16:57:01.782Z,9.88
2019-03-27T16:59:30.266Z,10.38
2019-03-27T17:01:58.741Z,12.23
2019-03-27T17:04:27.063Z,9.00
2019-03-27T17:06:55.434Z,7.17
2019-03-27T17:09:24.097Z,12.45
2019-03-27T17:11:52.529Z,11.95
2019-03-27T17:14:20.977Z,12.50
2019-03-27T17:16:49.318Z,15.68
2019-03-27T17:19:17.696Z,12.65
2019-03-27T17:21:45.975Z,16.12
2019-03-27T17:24:14.370Z,18.48
2019-03-27T17:26:42.771Z,15.38
2019-03-27T17:29:11.051Z,30.57
2019-03-27T17:31:39.434Z,33.45
2019-03-27T17:34:07.884Z,25.55
2019-03-27T17:36:36.176Z,21.97
2019-03-27T17:39:08.832Z,25.88
2019-03-27T17:41:37.667Z,29.50
2019-03-27T17:44:06.120Z,30.00
2019-03-27T17:46:34.614Z,21.57
2019-03-27T17:49:03.097Z,23.85
2019-03-27T17:51:31.385Z,23.47
2019-03-27T17:53:59.745Z,25.43
2019-03-27T17:56:28.238Z,25.35
2019-03-27T17:58:57.473Z,18.37
2019-03-27T18:01:25.854Z,21.85
2019-03-27T18:03:54.233Z,19.52
2019-03-27T18:06:22.650Z,12.47
2019-03-27T18:08:51.055Z,13.70
2019-03-27T18:11:19.572Z,14.33
2019-03-27T18:13:47.908Z,11.93
2019-03-27T18:16:17.305Z,16.45
2019-03-27T18:18:45.885Z,18.82
2019-03-27T18:21:14.232Z,20.92
2019-03-27T18:23:46.427Z,26.70
2019-03-27T18:26:12.781Z,29.12
2019-03-27T18:28:41.159Z,32.53
2019-03-27T18:31:09.475Z,29.12
2019-03-27T18:33:39.055Z,31.93
2019-03-27T18:36:09.364Z,31.73
2019-03-27T18:38:37.927Z,36.68
2019-03-27T18:41:06.371Z,44.42
2019-03-27T18:43:34.891Z,45.78
2019-03-27T18:46:03.216Z,45.28
2019-03-27T18:48:31.561Z,41.13
2019-03-27T18:51:00.026Z,44.93
2019-03-27T18:53:28.682Z,40.15
2019-03-27T18:55:57.065Z,39.88
2019-03-27T18:58:25.760Z,36.35
2019-03-27T19:00:55.037Z,32.83
2019-03-27T19:03:23.398Z,32.73
2019-03-27T19:05:51.875Z,30.23
2019-03-27T19:08:20.339Z,34.92
2019-03-27T19:10:48.692Z,32.90
2019-03-27T19:13:17.121Z,36.23
2019-03-27T19:16:08.996Z,36.38
2019-03-27T19:19:05.028Z,34.08
2019-03-27T19:21:33.883Z,32.80
2019-03-27T19:24:13.307Z,31.65
2019-03-27T19:26:32.663Z,32.25
2019-03-27T19:29:00.995Z,29.55
2019-03-27T19:31:29.262Z,33.60
2019-03-27T19:33:57.625Z,29.90
2019-03-27T19:36:26.035Z,39.95
2019-03-27T19:38:54.459Z,30.08
2019-03-27T19:41:24.668Z,28.50
2019-03-27T19:43:53.714Z,28.75
2019-03-27T19:46:22.084Z,27.07
2019-03-27T19:48:50.990Z,34.48
2019-03-27T19:51:21.817Z,30.10
2019-03-27T19:53:53.403Z,28.95
2019-03-27T19:56:25.326Z,27.52
2019-03-27T19:58:54.044Z,24.82
2019-03-27T20:01:23.345Z,32.70
2019-03-27T20:03:51.708Z,23.92
2019-03-27T20:06:20.058Z,22.07
2019-03-27T20:08:48.328Z,23.87
2019-03-27T20:11:20.917Z,28.83
2019-03-27T20:13:49.217Z,23.87
2019-03-27T20:16:17.825Z,24.72
2019-03-27T20:18:49.034Z,30.95
2019-03-27T20:21:17.323Z,27.62
2019-03-27T20:23:49.068Z,25.92
2019-03-27T20:26:17.352Z,32.85
2019-03-27T20:29:11.100Z,24.12
2019-03-27T20:31:39.470Z,35.13
2019-03-27T20:34:07.773Z,32.45
2019-03-27T20:36:39.016Z,29.77
2019-03-27T20:39:08.368Z,36.93
2019-03-27T20:41:36.653Z,35.15
2019-03-27T20:44:04.980Z,38.05
2019-03-27T20:46:33.420Z,35.70
2019-03-27T20:49:09.170Z,37.25
2019-03-27T20:51:38.351Z,41.05
2019-03-27T20:54:07.049Z,40.12
2019-03-27T20:56:36.425Z,41.25
2019-03-27T20:59:04.826Z,36.90
2019-03-27T21:01:36.050Z,34.60
2019-03-27T21:04:16.292Z,41.70
2019-03-27T21:06:44.592Z,40.60
2019-03-27T21:09:14.447Z,37.85
2019-03-27T21:11:43.122Z,43.50
2019-03-27T21:14:11.522Z,41.45
2019-03-27T21:16:39.869Z,41.37
2019-03-27T21:19:08.361Z,39.78
2019-03-27T21:21:36.709Z,41.88
2019-03-27T21:24:05.039Z,41.75
2019-03-27T21:26:33.453Z,39.20
2019-03-27T21:29:01.737Z,40.28
2019-03-27T21:31:30.183Z,41.55
2019-03-27T21:33:59.132Z,45.00
2019-03-27T21:36:27.579Z,41.90
2019-03-27T21:38:55.970Z,44.65
2019-03-27T21:41:24.290Z,41.13
2019-03-27T21:43:53.509Z,40.75
2019-03-27T21:46:21.838Z,43.38
2019-03-27T21:48:50.223Z,36.77
2019-03-27T21:51:18.640Z,41.58
2019-03-27T21:53:50.962Z,39.50
2019-03-27T21:56:19.080Z,35.85
2019-03-27T21:58:47.540Z,37.70
2019-03-27T22:01:17.176Z,43.23
2019-03-27T22:03:46.319Z,40.40
2019-03-27T22:06:14.591Z,29.80
2019-03-27T22:08:43.081Z,37.80
2019-03-27T22:11:13.313Z,41.08
2019-03-27T22:13:41.747Z,45.88
2019-03-27T22:16:10.157Z,39.75
2019-03-27T22:18:38.471Z,41.85
2019-03-27T22:21:06.893Z,38.38
2019-03-27T22:23:35.244Z,40.30
2019-03-27T22:26:03.689Z,40.88
2019-03-27T22:28:32.063Z,42.93
2019-03-27T22:31:00.511Z,140.57
2019-03-27T22:33:29.185Z,71.87
2019-03-27T22:35:57.737Z,56.30
2019-03-27T22:38:26.162Z,58.08
2019-03-27T22:40:54.797Z,56.30
2019-03-27T22:43:23.248Z,59.75
2019-03-27T22:45:51.622Z,69.90
2019-03-27T22:48:20.071Z,61.90
2019-03-27T22:50:48.733Z,65.65
2019-03-27T22:53:17.169Z,66.42
2019-03-27T22:55:50.118Z,62.15
2019-03-27T22:58:15.617Z,65.42
2019-03-27T23:00:45.770Z,68.15
2019-03-27T23:03:18.434Z,61.53
2019-03-27T23:05:45.381Z,63.78
2019-03-27T23:08:13.871Z,61.02
2019-03-27T23:10:42.452Z,57.58
2019-03-27T23:13:10.895Z,67.22
2019-03-27T23:15:39.354Z,65.37
2019-03-27T23:18:07.774Z,62.78
2019-03-27T23:20:36.165Z,62.30
2019-03-27T23:23:04.675Z,70.22
2019-03-27T23:25:32.960Z,65.87
2019-03-27T23:28:01.264Z,60.28
2019-03-27T23:30:29.553Z,47.85
2019-03-27T23:32:57.871Z,59.30
2019-03-27T23:35:26.185Z,53.80
2019-03-27T23:37:54.662Z,55.95
2019-03-27T23:40:23.147Z,51.25
2019-03-27T23:42:51.423Z,57.38
2019-03-27T23:45:20.133Z,54.45
2019-03-27T23:47:48.893Z,56.35
2019-03-27T23:50:17.449Z,54.67
2019-03-27T23:52:45.831Z,50.98
2019-03-27T23:55:16.914Z,53.75
2019-03-27T23:57:45.196Z,49.55
